createdAt,value
2019-04-20T00:00:13.219Z,101606
2019-04-20T00:05:11.295Z,101617
2019-04-20T00:10:16.774Z,101601
2019-04-20T00:15:13.099Z,101602
2019-04-20T00:20:18.332Z,101602
2019-04-20T00:25:16.933Z,101604
2019-04-20T00:30:31.289Z,101596
2019-04-20T00:35:12.376Z,101593
2019-04-20T00:40:11.313Z,101604
2019-04-20T00:45:18.969Z,101603
2019-04-20T00:50:28.057Z,101582
2019-04-20T00:55:11.293Z,101583
2019-04-20T01:00:25.655Z,101583
2019-04-20T01:05:22.572Z,101594
2019-04-20T01:10:11.278Z,101587
2019-04-20T01:15:17.386Z,101594
2019-04-20T01:20:11.298Z,101595
2019-04-20T01:25:18.015Z,101589
2019-04-20T01:30:20.440Z,101589
2019-04-20T01:35:29.907Z,101585
2019-04-20T01:40:11.722Z,101597
2019-04-20T01:45:17.780Z,101592
2019-04-20T01:50:16.585Z,101595
2019-04-20T01:55:27.438Z,101596
2019-04-20T02:00:18.095Z,101589
2019-04-20T02:05:16.498Z,101589
2019-04-20T02:10:13.715Z,101591
2019-04-20T02:15:19.670Z,101590
2019-04-20T02:20:32.877Z,101603
2019-04-20T02:25:12.142Z,101598
2019-04-20T02:30:47.260Z,101590
2019-04-20T02:35:42.355Z,101589
2019-04-20T02:40:50.139Z,101585
2019-04-20T02:45:43.754Z,101580
2019-04-20T02:50:42.935Z,101588
2019-04-20T03:00:33.451Z,101592
2019-04-20T03:05:23.522Z,101585
2019-04-20T03:10:40.752Z,101578
2019-04-20T03:15:41.622Z,101570
2019-04-20T03:20:35.908Z,101577
2019-04-20T03:25:35.581Z,101577
2019-04-20T03:35:32.781Z,101577
2019-04-20T03:40:23.993Z,101569
2019-04-20T03:45:14.721Z,101574
2019-04-20T03:50:35.434Z,101570
2019-04-20T03:55:25.357Z,101574
2019-04-20T04:00:30.303Z,101573
2019-04-20T04:05:27.319Z,101578
2019-04-20T04:10:24.630Z,101596
2019-04-20T04:15:12.562Z,101584
2019-04-20T04:20:14.727Z,101588
2019-04-20T04:25:22.612Z,101598
2019-04-20T04:30:25.183Z,101593
2019-04-20T04:35:23.162Z,101592
2019-04-20T04:40:55.010Z,101588
2019-04-20T04:45:14.468Z,101584
2019-04-20T04:50:16.174Z,101583
2019-04-20T04:55:23.321Z,101591
2019-04-20T05:00:17.537Z,101595
2019-04-20T05:05:30.691Z,101593
2019-04-20T05:10:11.871Z,101593
2019-04-20T05:15:18.945Z,101600
2019-04-20T05:20:26.769Z,101597
2019-04-20T05:25:30.760Z,101592
2019-04-20T05:30:11.854Z,101597
2019-04-20T05:35:30.458Z,101594
2019-04-20T05:40:32.393Z,101604
2019-04-20T05:45:24.355Z,101604
2019-04-20T05:50:30.091Z,101615
2019-04-20T05:55:32.861Z,101606
2019-04-20T06:00:33.293Z,101612
2019-04-20T06:05:34.502Z,101612
2019-04-20T06:10:31.516Z,101607
2019-04-20T06:15:23.277Z,101617
2019-04-20T06:20:30.908Z,101613
2019-04-20T06:25:43.642Z,101613
2019-04-20T06:30:27.859Z,101602
2019-04-20T06:35:51.448Z,101621
2019-04-20T06:40:45.422Z,101612
2019-04-20T06:45:32.937Z,101617
2019-04-20T06:50:28.681Z,101617
2019-04-20T06:55:37.928Z,101628
2019-04-20T07:00:30.317Z,101625
2019-04-20T07:05:30.061Z,101635
2019-04-20T07:10:51.220Z,101627
2019-04-20T07:15:28.375Z,101623
2019-04-20T07:20:37.163Z,101629
2019-04-20T07:25:36.957Z,101621
2019-04-20T07:30:34.541Z,101628
2019-04-20T07:35:30.141Z,101627
2019-04-20T07:40:28.554Z,101643
2019-04-20T07:45:41.180Z,101632
2019-04-20T07:50:24.954Z,101630
2019-04-20T07:55:36.788Z,101633
2019-04-20T08:00:41.030Z,101638
2019-04-20T08:05:25.342Z,101641
2019-04-20T08:10:28.507Z,101645
2019-04-20T08:15:42.407Z,101631
2019-04-20T08:20:30.826Z,101636
2019-04-20T08:25:23.388Z,101640
2019-04-20T08:30:29.026Z,101634
2019-04-20T08:35:31.721Z,101627
2019-04-20T08:40:31.189Z,101633
2019-04-20T08:45:34.427Z,101635
2019-04-20T08:50:26.787Z,101634
2019-04-20T08:55:28.005Z,101626
2019-04-20T09:00:11.440Z,101630
2019-04-20T09:05:24.715Z,101620
2019-04-20T09:10:33.973Z,101618
2019-04-20T09:15:12.500Z,101620
2019-04-20T09:20:16.089Z,101612
2019-04-20T09:25:53.192Z,101605
2019-04-20T09:30:24.183Z,101602
2019-04-20T09:35:29.635Z,101606
2019-04-20T09:40:30.378Z,101595
2019-04-20T09:45:17.936Z,101594
2019-04-20T09:50:27.138Z,101595
2019-04-20T09:55:24.091Z,101591
2019-04-20T10:00:23.441Z,101598
2019-04-20T10:05:11.598Z,101589
2019-04-20T10:10:21.116Z,101584
2019-04-20T10:15:17.575Z,101579
2019-04-20T10:20:17.546Z,101575
2019-04-20T10:25:12.734Z,101579
2019-04-20T10:30:12.536Z,101569
2019-04-20T10:35:13.693Z,101563
2019-04-20T10:40:11.622Z,101565
2019-04-20T10:45:12.727Z,101565
2019-04-20T10:50:11.518Z,101567
2019-04-20T10:55:12.449Z,101562
2019-04-20T11:00:11.444Z,101556
2019-04-20T11:05:12.654Z,101559
2019-04-20T11:10:18.408Z,101562
2019-04-20T11:15:12.457Z,101558
2019-04-20T11:20:11.440Z,101558
2019-04-20T11:25:12.421Z,101543
2019-04-20T11:30:11.998Z,101549
2019-04-20T11:35:23.700Z,101543
2019-04-20T11:40:12.867Z,101532
2019-04-20T11:45:12.826Z,101527
2019-04-20T11:50:11.462Z,101524
2019-04-20T11:55:12.588Z,101520
2019-04-20T12:00:11.443Z,101524
2019-04-20T12:05:20.920Z,101525
2019-04-20T12:10:17.271Z,101516
2019-04-20T12:15:12.646Z,101500
2019-04-20T12:20:11.493Z,101501
2019-04-20T12:25:12.053Z,101490
2019-04-20T12:30:12.074Z,101480
2019-04-20T12:35:12.050Z,101475
2019-04-20T12:40:12.115Z,101490
2019-04-20T12:45:11.569Z,101471
2019-04-20T12:50:11.817Z,101471
2019-04-20T12:55:12.398Z,101466
2019-04-20T13:00:11.876Z,101460
2019-04-20T13:05:11.558Z,101477
2019-04-20T13:10:11.593Z,101463
2019-04-20T13:15:11.499Z,101464
2019-04-20T13:20:11.995Z,101446
2019-04-20T13:25:12.716Z,101444
2019-04-20T13:30:11.475Z,101438
2019-04-20T13:35:12.132Z,101430
2019-04-20T13:40:11.484Z,101430
2019-04-20T13:45:12.815Z,101419
2019-04-20T13:50:12.943Z,101414
2019-04-20T13:55:11.538Z,101416
2019-04-20T14:00:11.504Z,101407
2019-04-20T14:05:12.595Z,101397
2019-04-20T14:10:11.447Z,101379
2019-04-20T14:15:11.537Z,101377
2019-04-20T14:20:15.101Z,101367
2019-04-20T14:25:11.532Z,101370
2019-04-20T14:30:12.898Z,101357
2019-04-20T14:35:11.523Z,101360
2019-04-20T14:40:12.556Z,101347
2019-04-20T14:45:11.542Z,101333
2019-04-20T14:50:11.871Z,101334
2019-04-20T14:55:13.515Z,101336
2019-04-20T15:00:11.789Z,101327
2019-04-20T15:05:12.789Z,101325
2019-04-20T15:10:11.787Z,101319
2019-04-20T15:15:12.553Z,101326
2019-04-20T15:20:11.814Z,101314
2019-04-20T15:25:11.738Z,101305
2019-04-20T15:30:12.062Z,101301
2019-04-20T15:35:11.508Z,101297
2019-04-20T15:40:11.499Z,101297
2019-04-20T15:45:11.577Z,101295
2019-04-20T15:50:11.785Z,101286
2019-04-20T15:55:19.189Z,101288
2019-04-20T16:00:11.515Z,101287
2019-04-20T16:05:12.314Z,101283
2019-04-20T16:10:12.866Z,101263
2019-04-20T16:15:11.560Z,101261
2019-04-20T16:20:14.635Z,101263
2019-04-20T16:25:11.738Z,101262
2019-04-20T16:30:11.694Z,101253
2019-04-20T16:35:11.515Z,101253
2019-04-20T16:40:11.694Z,101247
2019-04-20T16:45:11.703Z,101234
2019-04-20T16:50:12.987Z,101237
2019-04-20T16:55:12.842Z,101232
2019-04-20T17:00:11.586Z,101221
2019-04-20T17:05:11.516Z,101218
2019-04-20T17:10:11.934Z,101222
2019-04-20T17:15:11.805Z,101214
2019-04-20T17:20:11.618Z,101222
2019-04-20T17:25:12.268Z,101217
2019-04-20T17:30:12.861Z,101215
2019-04-20T17:35:20.477Z,101211
2019-04-20T17:40:33.711Z,101215
2019-04-20T17:45:24.743Z,101219
2019-04-20T17:50:30.237Z,101210
2019-04-20T17:55:22.781Z,101212
2019-04-20T18:00:14.863Z,101212
2019-04-20T18:05:38.693Z,101217
2019-04-20T18:10:30.126Z,101217
2019-04-20T18:15:31.108Z,101225
2019-04-20T18:20:12.615Z,101222
2019-04-20T18:25:28.651Z,101226
2019-04-20T18:30:26.101Z,101233
2019-04-20T18:35:12.133Z,101234
2019-04-20T18:40:14.813Z,101233
2019-04-20T18:45:26.362Z,101234
2019-04-20T18:50:18.248Z,101243
2019-04-20T18:55:15.720Z,101244
2019-04-20T19:00:18.219Z,101241
2019-04-20T19:05:11.628Z,101238
2019-04-20T19:10:18.447Z,101236
2019-04-20T19:15:30.276Z,101255
2019-04-20T19:20:12.056Z,101255
2019-04-20T19:25:18.140Z,101250
2019-04-20T19:30:24.282Z,101252
2019-04-20T19:35:25.559Z,101260
2019-04-20T19:40:21.745Z,101262
2019-04-20T19:45:35.970Z,101251
2019-04-20T19:50:34.967Z,101256
2019-04-20T19:55:27.074Z,101243
2019-04-20T20:00:11.916Z,101244
2019-04-20T20:05:15.330Z,101240
2019-04-20T20:10:12.700Z,101253
2019-04-20T20:15:15.922Z,101255
2019-04-20T20:20:35.467Z,101264
2019-04-20T20:25:12.770Z,101240
2019-04-20T20:30:18.460Z,101243
2019-04-20T20:35:16.547Z,101249
2019-04-20T20:40:18.641Z,101244
2019-04-20T20:45:22.524Z,101242
2019-04-20T20:50:32.487Z,101247
2019-04-20T20:55:20.780Z,101250
2019-04-20T21:00:22.512Z,101247
2019-04-20T21:05:11.680Z,101253
2019-04-20T21:10:14.966Z,101252
2019-04-20T21:15:16.749Z,101242
2019-04-20T21:20:24.963Z,101237
2019-04-20T21:25:12.911Z,101235
2019-04-20T21:30:18.146Z,101244
2019-04-20T21:35:14.185Z,101245
2019-04-20T21:40:20.199Z,101240
2019-04-20T21:45:18.481Z,101240
2019-04-20T21:50:29.355Z,101246
2019-04-20T21:55:12.093Z,101232
2019-04-20T22:00:18.775Z,101233
2019-04-20T22:05:11.664Z,101232
2019-04-20T22:10:18.201Z,101245
2019-04-20T22:15:19.637Z,101235
2019-04-20T22:20:19.913Z,101225
2019-04-20T22:25:28.042Z,101231
2019-04-20T22:30:12.244Z,101224
2019-04-20T22:35:15.183Z,101225
2019-04-20T22:40:18.312Z,101233
2019-04-20T22:45:15.089Z,101218
2019-04-20T22:50:24.836Z,101215
2019-04-20T22:55:23.574Z,101213
2019-04-20T23:00:16.589Z,101215
2019-04-20T23:05:13.012Z,101211
2019-04-20T23:10:11.626Z,101209
2019-04-20T23:15:12.144Z,101201
2019-04-20T23:20:17.064Z,101191
2019-04-20T23:25:11.634Z,101191
2019-04-20T23:30:20.137Z,101184
2019-04-20T23:35:16.466Z,101173
2019-04-20T23:40:13.641Z,101170
2019-04-20T23:45:11.687Z,101167
2019-04-20T23:50:25.562Z,101157
2019-04-20T23:55:13.855Z,101164
